sensor_id;sensor_type;location;lat;lon;timestamp;temperature;humidity
6098;DHT22;3077;50.922;6.584;2023-03-01T00:01:31;2.00;99.90
6098;DHT22;3077;50.922;6.584;2023-03-01T00:03:58;2.00;99.90
6098;DHT22;3077;50.922;6.584;2023-03-01T00:06:24;2.00;99.90
6098;DHT22;3077;50.922;6.584;2023-03-01T00:08:51;2.00;99.90
6098;DHT22;3077;50.922;6.584;2023-03-01T00:11:23;1.90;99.90
6098;DHT22;3077;50.922;6.584;2023-03-01T00:13:52;1.90;99.90
6098;DHT22;3077;50.922;6.584;2023-03-01T00:16:27;1.80;99.90
6098;DHT22;3077;50.922;6.584;2023-03-01T00:18:54;1.80;99.90
6098;DHT22;3077;50.922;6.584;2023-03-01T00:21:21;1.70;99.90
6098;DHT22;3077;50.922;6.584;2023-03-01T00:23:48;1.70;99.90
6098;DHT22;3077;50.922;6.584;2023-03-01T00:26:14;1.60;99.90
6098;DHT22;3077;50.922;6.584;2023-03-01T00:28:41;1.60;99.90
6098;DHT22;3077;50.922;6.584;2023-03-01T00:31:09;1.50;99.90
6098;DHT22;3077;50.922;6.584;2023-03-01T00:33:36;1.50;99.90
6098;DHT22;3077;50.922;6.584;2023-03-01T00:36:02;1.50;99.90
6098;DHT22;3077;50.922;6.584;2023-03-01T00:38:28;1.50;99.90
6098;DHT22;3077;50.922;6.584;2023-03-01T00:40:54;1.40;99.90
6098;DHT22;3077;50.922;6.584;2023-03-01T00:43:19;1.40;99.90
6098;DHT22;3077;50.922;6.584;2023-03-01T00:45:45;1.40;99.90
6098;DHT22;3077;50.922;6.584;2023-03-01T00:48:11;1.30;99.90
6098;DHT22;3077;50.922;6.584;2023-03-01T00:50:36;1.30;99.90
6098;DHT22;3077;50.922;6.584;2023-03-01T00:53:02;1.30;99.90
6098;DHT22;3077;50.922;6.584;2023-03-01T00:55:27;1.30;99.90
6098;DHT22;3077;50.922;6.584;2023-03-01T00:57:53;1.30;99.90
6098;DHT22;3077;50.922;6.584;2023-03-01T01:00:19;1.20;99.90
6098;DHT22;3077;50.922;6.584;2023-03-01T01:02:45;1.20;99.90
6098;DHT22;3077;50.922;6.584;2023-03-01T01:05:12;1.20;99.90
6098;DHT22;3077;50.922;6.584;2023-03-01T01:07:37;1.20;99.90
6098;DHT22;3077;50.922;6.584;2023-03-01T01:10:03;1.20;99.90
6098;DHT22;3077;50.922;6.584;2023-03-01T01:12:29;1.20;99.90
6098;DHT22;3077;50.922;6.584;2023-03-01T01:14:55;1.20;99.90
6098;DHT22;3077;50.922;6.584;2023-03-01T01:17:20;1.10;99.90
6098;DHT22;3077;50.922;6.584;2023-03-01T01:19:46;1.10;99.90
6098;DHT22;3077;50.922;6.584;2023-03-01T01:22:11;1.10;99.90
6098;DHT22;3077;50.922;6.584;2023-03-01T01:24:37;1.00;99.90
6098;DHT22;3077;50.922;6.584;2023-03-01T01:27:03;1.00;99.90
6098;DHT22;3077;50.922;6.584;2023-03-01T01:29:28;1.00;99.90
6098;DHT22;3077;50.922;6.584;2023-03-01T01:31:54;1.00;99.90
6098;DHT22;3077;50.922;6.584;2023-03-01T01:34:21;1.00;99.90
6098;DHT22;3077;50.922;6.584;2023-03-01T01:36:52;1.10;99.90
6098;DHT22;3077;50.922;6.584;2023-03-01T01:39:21;1.00;99.90
6098;DHT22;3077;50.922;6.584;2023-03-01T01:41:47;1.00;99.90
6098;DHT22;3077;50.922;6.584;2023-03-01T01:46:53;0.80;99.90
6098;DHT22;3077;50.922;6.584;2023-03-01T01:57:37;0.80;99.90
6098;DHT22;3077;50.922;6.584;2023-03-01T02:00:21;0.80;99.90
6098;DHT22;3077;50.922;6.584;2023-03-01T02:02:49;0.80;99.90
6098;DHT22;3077;50.922;6.584;2023-03-01T02:05:35;0.70;99.90
6098;DHT22;3077;50.922;6.584;2023-03-01T02:08:02;0.70;99.90
6098;DHT22;3077;50.922;6.584;2023-03-01T02:10:28;0.60;99.90
6098;DHT22;3077;50.922;6.584;2023-03-01T02:12:55;0.60;99.90
6098;DHT22;3077;50.922;6.584;2023-03-01T02:15:22;0.60;99.90
6098;DHT22;3077;50.922;6.584;2023-03-01T02:17:48;0.60;99.90
6098;DHT22;3077;50.922;6.584;2023-03-01T02:21:05;0.60;99.90
6098;DHT22;3077;50.922;6.584;2023-03-01T02:23:22;0.60;99.90
6098;DHT22;3077;50.922;6.584;2023-03-01T02:30:51;0.50;99.90
6098;DHT22;3077;50.922;6.584;2023-03-01T02:33:38;0.50;99.90
6098;DHT22;3077;50.922;6.584;2023-03-01T02:36:08;0.50;99.90
6098;DHT22;3077;50.922;6.584;2023-03-01T02:38:34;0.40;99.90
6098;DHT22;3077;50.922;6.584;2023-03-01T02:41:00;0.40;99.90
6098;DHT22;3077;50.922;6.584;2023-03-01T02:43:30;0.40;99.90
6098;DHT22;3077;50.922;6.584;2023-03-01T02:45:59;0.40;99.90
6098;DHT22;3077;50.922;6.584;2023-03-01T02:48:27;0.30;99.90
6098;DHT22;3077;50.922;6.584;2023-03-01T02:53:55;0.30;99.90
6098;DHT22;3077;50.922;6.584;2023-03-01T02:56:21;0.20;99.90
6098;DHT22;3077;50.922;6.584;2023-03-01T02:58:47;0.20;99.90
6098;DHT22;3077;50.922;6.584;2023-03-01T03:01:20;0.10;99.90
6098;DHT22;3077;50.922;6.584;2023-03-01T03:03:46;0.20;99.90
6098;DHT22;3077;50.922;6.584;2023-03-01T03:06:12;0.20;99.90
6098;DHT22;3077;50.922;6.584;2023-03-01T03:08:38;0.10;99.90
6098;DHT22;3077;50.922;6.584;2023-03-01T03:11:04;0.10;99.90
6098;DHT22;3077;50.922;6.584;2023-03-01T03:13:30;0.10;99.90
6098;DHT22;3077;50.922;6.584;2023-03-01T03:15:56;0.00;99.90
6098;DHT22;3077;50.922;6.584;2023-03-01T03:18:23;0.00;99.90
6098;DHT22;3077;50.922;6.584;2023-03-01T03:20:52;0.10;99.90
6098;DHT22;3077;50.922;6.584;2023-03-01T03:23:20;0.10;99.90
6098;DHT22;3077;50.922;6.584;2023-03-01T03:25:48;0.10;99.90
6098;DHT22;3077;50.922;6.584;2023-03-01T03:28:14;0.10;99.90
6098;DHT22;3077;50.922;6.584;2023-03-01T03:30:42;0.00;99.90
6098;DHT22;3077;50.922;6.584;2023-03-01T03:33:09;0.00;99.90
6098;DHT22;3077;50.922;6.584;2023-03-01T03:35:44;-0.10;99.90
6098;DHT22;3077;50.922;6.584;2023-03-01T03:38:11;-0.10;99.90
6098;DHT22;3077;50.922;6.584;2023-03-01T03:40:51;-0.10;99.90
6098;DHT22;3077;50.922;6.584;2023-03-01T03:43:21;-0.20;99.90
6098;DHT22;3077;50.922;6.584;2023-03-01T03:45:49;-0.20;99.90
6098;DHT22;3077;50.922;6.584;2023-03-01T03:48:16;-0.20;99.90
6098;DHT22;3077;50.922;6.584;2023-03-01T03:50:47;-0.20;99.90
6098;DHT22;3077;50.922;6.584;2023-03-01T03:53:13;-0.30;99.90
6098;DHT22;3077;50.922;6.584;2023-03-01T03:55:39;-0.30;99.90
6098;DHT22;3077;50.922;6.584;2023-03-01T03:58:06;-0.30;99.90
6098;DHT22;3077;50.922;6.584;2023-03-01T04:00:34;-0.30;99.90
6098;DHT22;3077;50.922;6.584;2023-03-01T04:02:59;-0.30;99.90
6098;DHT22;3077;50.922;6.584;2023-03-01T04:05:26;-0.30;99.90
6098;DHT22;3077;50.922;6.584;2023-03-01T04:07:52;-0.40;99.90
6098;DHT22;3077;50.922;6.584;2023-03-01T04:10:55;-0.40;99.90
6098;DHT22;3077;50.922;6.584;2023-03-01T04:13:22;-0.40;99.90
6098;DHT22;3077;50.922;6.584;2023-03-01T04:15:51;-0.40;99.90
6098;DHT22;3077;50.922;6.584;2023-03-01T04:18:19;-0.50;99.90
6098;DHT22;3077;50.922;6.584;2023-03-01T04:20:46;-0.50;99.90
6098;DHT22;3077;50.922;6.584;2023-03-01T04:23:19;-0.50;99.90
6098;DHT22;3077;50.922;6.584;2023-03-01T04:25:51;-0.50;99.90
6098;DHT22;3077;50.922;6.584;2023-03-01T04:28:31;-0.50;99.90
6098;DHT22;3077;50.922;6.584;2023-03-01T04:31:13;-0.60;99.90
6098;DHT22;3077;50.922;6.584;2023-03-01T04:33:42;-0.60;99.90
6098;DHT22;3077;50.922;6.584;2023-03-01T04:36:09;-0.70;99.90
6098;DHT22;3077;50.922;6.584;2023-03-01T04:38:36;-0.60;99.90
6098;DHT22;3077;50.922;6.584;2023-03-01T04:41:04;-0.70;99.90
6098;DHT22;3077;50.922;6.584;2023-03-01T04:43:29;-0.70;99.90
6098;DHT22;3077;50.922;6.584;2023-03-01T04:46:03;-0.70;99.90
6098;DHT22;3077;50.922;6.584;2023-03-01T04:48:30;-0.70;99.90
6098;DHT22;3077;50.922;6.584;2023-03-01T04:50:57;-0.80;99.90
6098;DHT22;3077;50.922;6.584;2023-03-01T04:53:23;-0.80;99.90
6098;DHT22;3077;50.922;6.584;2023-03-01T04:55:50;-0.90;99.90
6098;DHT22;3077;50.922;6.584;2023-03-01T04:58:15;-0.90;99.90
6098;DHT22;3077;50.922;6.584;2023-03-01T05:00:41;-0.90;99.90
6098;DHT22;3077;50.922;6.584;2023-03-01T05:03:08;-0.90;99.90
6098;DHT22;3077;50.922;6.584;2023-03-01T05:05:38;-0.90;99.90
6098;DHT22;3077;50.922;6.584;2023-03-01T05:08:06;-0.90;99.90
6098;DHT22;3077;50.922;6.584;2023-03-01T05:10:34;-0.90;99.90
6098;DHT22;3077;50.922;6.584;2023-03-01T05:13:01;-0.90;99.90
6098;DHT22;3077;50.922;6.584;2023-03-01T05:15:28;-0.90;99.90
6098;DHT22;3077;50.922;6.584;2023-03-01T05:17:56;-1.00;99.90
6098;DHT22;3077;50.922;6.584;2023-03-01T05:20:24;-1.00;99.90
6098;DHT22;3077;50.922;6.584;2023-03-01T05:22:56;-1.10;99.90
6098;DHT22;3077;50.922;6.584;2023-03-01T05:25:22;-1.10;99.90
6098;DHT22;3077;50.922;6.584;2023-03-01T05:27:48;-1.10;99.90
6098;DHT22;3077;50.922;6.584;2023-03-01T05:30:14;-1.10;99.90
6098;DHT22;3077;50.922;6.584;2023-03-01T05:32:43;-1.10;99.90
6098;DHT22;3077;50.922;6.584;2023-03-01T05:35:12;-1.10;99.90
6098;DHT22;3077;50.922;6.584;2023-03-01T05:37:43;-1.10;99.90
6098;DHT22;3077;50.922;6.584;2023-03-01T05:40:14;-1.10;99.90
6098;DHT22;3077;50.922;6.584;2023-03-01T05:42:48;-1.20;99.90
6098;DHT22;3077;50.922;6.584;2023-03-01T05:45:15;-1.20;99.90
6098;DHT22;3077;50.922;6.584;2023-03-01T05:47:43;-1.20;99.90
6098;DHT22;3077;50.922;6.584;2023-03-01T05:50:20;-1.30;99.90
6098;DHT22;3077;50.922;6.584;2023-03-01T05:52:49;-1.30;99.90
6098;DHT22;3077;50.922;6.584;2023-03-01T05:55:16;-1.40;99.90
6098;DHT22;3077;50.922;6.584;2023-03-01T05:57:42;-1.40;99.90
6098;DHT22;3077;50.922;6.584;2023-03-01T06:00:09;-1.40;99.90
6098;DHT22;3077;50.922;6.584;2023-03-01T06:02:36;-1.40;99.90
6098;DHT22;3077;50.922;6.584;2023-03-01T06:05:01;-1.40;99.90
6098;DHT22;3077;50.922;6.584;2023-03-01T06:07:27;-1.40;99.90
6098;DHT22;3077;50.922;6.584;2023-03-01T06:09:53;-1.30;99.90
6098;DHT22;3077;50.922;6.584;2023-03-01T06:12:19;-1.30;99.90
6098;DHT22;3077;50.922;6.584;2023-03-01T06:14:46;-1.30;99.90
6098;DHT22;3077;50.922;6.584;2023-03-01T06:17:12;-1.30;99.90
6098;DHT22;3077;50.922;6.584;2023-03-01T06:19:38;-1.30;99.90
6098;DHT22;3077;50.922;6.584;2023-03-01T06:22:04;-1.20;99.90
6098;DHT22;3077;50.922;6.584;2023-03-01T06:24:29;-1.20;99.90
6098;DHT22;3077;50.922;6.584;2023-03-01T06:26:55;-1.20;99.90
6098;DHT22;3077;50.922;6.584;2023-03-01T06:29:21;-1.20;99.90
6098;DHT22;3077;50.922;6.584;2023-03-01T06:31:48;-1.20;99.90
6098;DHT22;3077;50.922;6.584;2023-03-01T06:34:14;-1.20;99.90
6098;DHT22;3077;50.922;6.584;2023-03-01T06:36:39;-1.10;99.90
6098;DHT22;3077;50.922;6.584;2023-03-01T06:39:05;-1.20;99.90
6098;DHT22;3077;50.922;6.584;2023-03-01T06:41:32;-1.20;99.90
6098;DHT22;3077;50.922;6.584;2023-03-01T06:43:58;-1.20;99.90
6098;DHT22;3077;50.922;6.584;2023-03-01T06:46:24;-1.10;99.90
6098;DHT22;3077;50.922;6.584;2023-03-01T06:48:50;-1.10;99.90
6098;DHT22;3077;50.922;6.584;2023-03-01T06:51:15;-1.00;99.90
6098;DHT22;3077;50.922;6.584;2023-03-01T06:53:41;-1.00;99.90
6098;DHT22;3077;50.922;6.584;2023-03-01T06:56:06;-1.00;99.90
6098;DHT22;3077;50.922;6.584;2023-03-01T06:58:32;-0.90;99.90
6098;DHT22;3077;50.922;6.584;2023-03-01T07:00:58;-0.80;99.90
6098;DHT22;3077;50.922;6.584;2023-03-01T07:03:23;-0.80;99.90
6098;DHT22;3077;50.922;6.584;2023-03-01T07:05:49;-0.70;99.90
6098;DHT22;3077;50.922;6.584;2023-03-01T07:08:18;-0.70;99.90
6098;DHT22;3077;50.922;6.584;2023-03-01T07:10:44;-0.60;99.90
6098;DHT22;3077;50.922;6.584;2023-03-01T07:13:09;-0.60;99.90
6098;DHT22;3077;50.922;6.584;2023-03-01T07:15:35;-0.50;99.90
6098;DHT22;3077;50.922;6.584;2023-03-01T07:18:01;-0.40;99.90
6098;DHT22;3077;50.922;6.584;2023-03-01T07:20:27;-0.30;99.90
6098;DHT22;3077;50.922;6.584;2023-03-01T07:22:54;-0.30;99.90
6098;DHT22;3077;50.922;6.584;2023-03-01T07:25:20;-0.30;99.90
6098;DHT22;3077;50.922;6.584;2023-03-01T07:27:52;-0.30;99.90
6098;DHT22;3077;50.922;6.584;2023-03-01T07:30:18;-0.20;99.90
6098;DHT22;3077;50.922;6.584;2023-03-01T07:32:43;-0.10;99.90
6098;DHT22;3077;50.922;6.584;2023-03-01T07:35:10;0.00;99.90
6098;DHT22;3077;50.922;6.584;2023-03-01T07:37:36;0.00;99.90
6098;DHT22;3077;50.922;6.584;2023-03-01T07:40:01;0.10;99.90
6098;DHT22;3077;50.922;6.584;2023-03-01T07:42:27;0.10;99.90
6098;DHT22;3077;50.922;6.584;2023-03-01T07:44:52;0.20;99.90
6098;DHT22;3077;50.922;6.584;2023-03-01T07:47:18;0.30;99.90
6098;DHT22;3077;50.922;6.584;2023-03-01T07:49:44;0.40;99.90
6098;DHT22;3077;50.922;6.584;2023-03-01T07:52:11;0.50;99.90
6098;DHT22;3077;50.922;6.584;2023-03-01T07:54:37;0.50;99.90
6098;DHT22;3077;50.922;6.584;2023-03-01T07:57:03;0.60;99.90
6098;DHT22;3077;50.922;6.584;2023-03-01T07:59:28;0.70;99.90
6098;DHT22;3077;50.922;6.584;2023-03-01T08:01:57;0.80;99.90
6098;DHT22;3077;50.922;6.584;2023-03-01T08:04:23;0.80;99.90
6098;DHT22;3077;50.922;6.584;2023-03-01T08:06:50;0.90;99.90
6098;DHT22;3077;50.922;6.584;2023-03-01T08:09:16;1.20;99.90
6098;DHT22;3077;50.922;6.584;2023-03-01T08:11:42;1.00;99.90
6098;DHT22;3077;50.922;6.584;2023-03-01T08:14:07;1.10;99.90
6098;DHT22;3077;50.922;6.584;2023-03-01T08:16:33;1.20;99.90
6098;DHT22;3077;50.922;6.584;2023-03-01T08:19:07;1.40;99.90
6098;DHT22;3077;50.922;6.584;2023-03-01T08:21:33;1.40;99.90
6098;DHT22;3077;50.922;6.584;2023-03-01T08:24:03;1.50;99.90
6098;DHT22;3077;50.922;6.584;2023-03-01T08:26:29;1.60;99.90
6098;DHT22;3077;50.922;6.584;2023-03-01T08:28:55;1.60;99.90
6098;DHT22;3077;50.922;6.584;2023-03-01T08:31:23;1.60;99.90
6098;DHT22;3077;50.922;6.584;2023-03-01T08:33:51;1.60;99.90
6098;DHT22;3077;50.922;6.584;2023-03-01T08:36:21;1.70;99.90
6098;DHT22;3077;50.922;6.584;2023-03-01T08:38:47;1.80;99.90
6098;DHT22;3077;50.922;6.584;2023-03-01T08:41:13;1.90;99.90
6098;DHT22;3077;50.922;6.584;2023-03-01T08:43:40;2.00;99.90
6098;DHT22;3077;50.922;6.584;2023-03-01T08:46:05;2.20;99.90
6098;DHT22;3077;50.922;6.584;2023-03-01T08:48:31;2.30;99.90
6098;DHT22;3077;50.922;6.584;2023-03-01T08:50:57;2.30;99.90
6098;DHT22;3077;50.922;6.584;2023-03-01T08:53:22;2.50;99.90
6098;DHT22;3077;50.922;6.584;2023-03-01T08:55:48;2.50;99.90
6098;DHT22;3077;50.922;6.584;2023-03-01T08:58:14;2.60;99.90
6098;DHT22;3077;50.922;6.584;2023-03-01T09:00:40;2.80;99.90
6098;DHT22;3077;50.922;6.584;2023-03-01T09:03:05;2.90;99.90
6098;DHT22;3077;50.922;6.584;2023-03-01T09:05:32;3.00;99.90
6098;DHT22;3077;50.922;6.584;2023-03-01T09:07:58;3.10;99.90
6098;DHT22;3077;50.922;6.584;2023-03-01T09:10:23;3.20;99.90
6098;DHT22;3077;50.922;6.584;2023-03-01T09:12:49;3.30;99.90
6098;DHT22;3077;50.922;6.584;2023-03-01T09:15:14;3.40;99.90
6098;DHT22;3077;50.922;6.584;2023-03-01T09:17:40;3.50;99.90
6098;DHT22;3077;50.922;6.584;2023-03-01T09:20:06;3.60;99.90
6098;DHT22;3077;50.922;6.584;2023-03-01T09:22:33;3.70;99.90
6098;DHT22;3077;50.922;6.584;2023-03-01T09:25:00;3.80;99.90
6098;DHT22;3077;50.922;6.584;2023-03-01T09:27:26;3.80;99.90
6098;DHT22;3077;50.922;6.584;2023-03-01T09:29:51;3.90;99.90
6098;DHT22;3077;50.922;6.584;2023-03-01T09:32:17;3.90;99.90
6098;DHT22;3077;50.922;6.584;2023-03-01T09:34:43;4.10;99.90
6098;DHT22;3077;50.922;6.584;2023-03-01T09:37:29;4.10;99.90
6098;DHT22;3077;50.922;6.584;2023-03-01T09:39:55;4.20;99.90
6098;DHT22;3077;50.922;6.584;2023-03-01T09:42:20;4.40;99.90
6098;DHT22;3077;50.922;6.584;2023-03-01T09:45:02;4.50;99.90
6098;DHT22;3077;50.922;6.584;2023-03-01T09:47:33;4.50;99.90
6098;DHT22;3077;50.922;6.584;2023-03-01T09:54:55;4.50;99.90
6098;DHT22;3077;50.922;6.584;2023-03-01T09:57:38;3.70;99.90
6098;DHT22;3077;50.922;6.584;2023-03-01T10:00:45;4.30;99.90
6098;DHT22;3077;50.922;6.584;2023-03-01T10:06:23;4.60;99.90
6098;DHT22;3077;50.922;6.584;2023-03-01T10:09:02;4.80;99.90
6098;DHT22;3077;50.922;6.584;2023-03-01T10:11:32;5.00;99.90
6098;DHT22;3077;50.922;6.584;2023-03-01T10:19:44;5.50;99.90
6098;DHT22;3077;50.922;6.584;2023-03-01T10:22:36;5.70;99.90
6098;DHT22;3077;50.922;6.584;2023-03-01T10:25:02;5.80;99.90
6098;DHT22;3077;50.922;6.584;2023-03-01T10:27:50;5.90;99.90
6098;DHT22;3077;50.922;6.584;2023-03-01T10:32:45;6.00;99.90
6098;DHT22;3077;50.922;6.584;2023-03-01T10:35:21;6.20;99.90
6098;DHT22;3077;50.922;6.584;2023-03-01T10:38:05;6.20;99.90
6098;DHT22;3077;50.922;6.584;2023-03-01T10:40:33;5.90;99.90
6098;DHT22;3077;50.922;6.584;2023-03-01T10:43:01;5.80;99.90
6098;DHT22;3077;50.922;6.584;2023-03-01T10:45:36;6.00;99.90
6098;DHT22;3077;50.922;6.584;2023-03-01T10:48:26;6.20;99.90
6098;DHT22;3077;50.922;6.584;2023-03-01T10:53:34;6.60;99.90
6098;DHT22;3077;50.922;6.584;2023-03-01T10:56:09;6.80;99.90
6098;DHT22;3077;50.922;6.584;2023-03-01T10:58:41;7.10;99.90
6098;DHT22;3077;50.922;6.584;2023-03-01T11:06:32;7.40;98.80
6098;DHT22;3077;50.922;6.584;2023-03-01T11:09:13;7.50;99.90
6098;DHT22;3077;50.922;6.584;2023-03-01T11:11:40;7.60;98.50
6098;DHT22;3077;50.922;6.584;2023-03-01T11:17:05;8.00;93.20
6098;DHT22;3077;50.922;6.584;2023-03-01T11:19:31;8.00;92.60
6098;DHT22;3077;50.922;6.584;2023-03-01T11:22:07;8.00;90.00
6098;DHT22;3077;50.922;6.584;2023-03-01T11:24:41;8.10;90.90
6098;DHT22;3077;50.922;6.584;2023-03-01T11:27:35;8.30;91.70
6098;DHT22;3077;50.922;6.584;2023-03-01T11:30:18;8.30;83.70
6098;DHT22;3077;50.922;6.584;2023-03-01T11:35:36;8.50;87.50
6098;DHT22;3077;50.922;6.584;2023-03-01T11:40:47;8.70;77.90
6098;DHT22;3077;50.922;6.584;2023-03-01T11:43:19;8.80;75.50
6098;DHT22;3077;50.922;6.584;2023-03-01T11:50:47;9.90;63.50
6098;DHT22;3077;50.922;6.584;2023-03-01T11:53:44;10.60;57.40
6098;DHT22;3077;50.922;6.584;2023-03-01T11:56:31;11.70;52.90
6098;DHT22;3077;50.922;6.584;2023-03-01T12:10:32;14.90;20.10
6098;DHT22;3077;50.922;6.584;2023-03-01T12:13:26;15.30;14.10
6098;DHT22;3077;50.922;6.584;2023-03-01T12:27:47;16.60;8.30
6098;DHT22;3077;50.922;6.584;2023-03-01T12:33:52;17.00;4.20
6098;DHT22;3077;50.922;6.584;2023-03-01T12:36:29;17.00;4.80
6098;DHT22;3077;50.922;6.584;2023-03-01T12:39:14;17.10;3.70
6098;DHT22;3077;50.922;6.584;2023-03-01T12:50:20;17.00;1.40
6098;DHT22;3077;50.922;6.584;2023-03-01T12:52:53;17.40;1.00
6098;DHT22;3077;50.922;6.584;2023-03-01T13:00:44;17.30;1.00
6098;DHT22;3077;50.922;6.584;2023-03-01T13:03:28;17.70;1.00
6098;DHT22;3077;50.922;6.584;2023-03-01T13:06:25;17.60;1.00
6098;DHT22;3077;50.922;6.584;2023-03-01T13:09:22;17.60;1.00
6098;DHT22;3077;50.922;6.584;2023-03-01T13:11:49;17.20;1.00
6098;DHT22;3077;50.922;6.584;2023-03-01T13:16:47;16.00;1.00
6098;DHT22;3077;50.922;6.584;2023-03-01T13:19:23;16.10;1.00
6098;DHT22;3077;50.922;6.584;2023-03-01T13:21:51;16.40;1.00
6098;DHT22;3077;50.922;6.584;2023-03-01T13:24:50;16.70;1.00
6098;DHT22;3077;50.922;6.584;2023-03-01T13:29:44;16.50;1.00
6098;DHT22;3077;50.922;6.584;2023-03-01T13:34:58;16.80;1.00
6098;DHT22;3077;50.922;6.584;2023-03-01T13:37:35;17.10;1.00
6098;DHT22;3077;50.922;6.584;2023-03-01T13:40:56;16.90;1.00
6098;DHT22;3077;50.922;6.584;2023-03-01T13:42:52;17.00;1.00
6098;DHT22;3077;50.922;6.584;2023-03-01T13:45:22;17.30;1.00
6098;DHT22;3077;50.922;6.584;2023-03-01T13:48:04;17.60;1.00
6098;DHT22;3077;50.922;6.584;2023-03-01T13:50:38;17.60;1.00
6098;DHT22;3077;50.922;6.584;2023-03-01T13:53:14;18.30;1.00
6098;DHT22;3077;50.922;6.584;2023-03-01T13:55:44;18.80;1.00
6098;DHT22;3077;50.922;6.584;2023-03-01T13:58:25;18.60;1.00
6098;DHT22;3077;50.922;6.584;2023-03-01T14:00:56;18.80;1.00
6098;DHT22;3077;50.922;6.584;2023-03-01T14:03:23;19.10;1.00
6098;DHT22;3077;50.922;6.584;2023-03-01T14:08:29;19.10;1.00
6098;DHT22;3077;50.922;6.584;2023-03-01T14:16:22;19.10;1.00
6098;DHT22;3077;50.922;6.584;2023-03-01T14:19:14;18.80;1.00
6098;DHT22;3077;50.922;6.584;2023-03-01T14:21:44;18.80;1.00
6098;DHT22;3077;50.922;6.584;2023-03-01T14:24:22;18.50;1.00
6098;DHT22;3077;50.922;6.584;2023-03-01T14:26:49;18.80;1.00
6098;DHT22;3077;50.922;6.584;2023-03-01T14:29:42;19.10;1.00
6098;DHT22;3077;50.922;6.584;2023-03-01T14:32:19;19.70;1.00
6098;DHT22;3077;50.922;6.584;2023-03-01T14:34:48;19.90;1.00
6098;DHT22;3077;50.922;6.584;2023-03-01T14:37:34;20.00;1.00
6098;DHT22;3077;50.922;6.584;2023-03-01T14:40:03;20.00;1.00
6098;DHT22;3077;50.922;6.584;2023-03-01T14:42:33;20.00;1.00
6098;DHT22;3077;50.922;6.584;2023-03-01T14:45:00;20.10;1.00
6098;DHT22;3077;50.922;6.584;2023-03-01T14:47:35;20.00;1.00
6098;DHT22;3077;50.922;6.584;2023-03-01T14:50:27;20.00;1.00
6098;DHT22;3077;50.922;6.584;2023-03-01T14:53:02;19.10;1.00
6098;DHT22;3077;50.922;6.584;2023-03-01T14:55:37;19.30;1.00
6098;DHT22;3077;50.922;6.584;2023-03-01T14:58:05;19.50;1.00
6098;DHT22;3077;50.922;6.584;2023-03-01T15:00:32;19.20;1.00
6098;DHT22;3077;50.922;6.584;2023-03-01T15:03:06;19.40;1.00
6098;DHT22;3077;50.922;6.584;2023-03-01T15:05:35;19.00;1.00
6098;DHT22;3077;50.922;6.584;2023-03-01T15:08:03;19.10;1.00
6098;DHT22;3077;50.922;6.584;2023-03-01T15:10:32;19.60;1.00
6098;DHT22;3077;50.922;6.584;2023-03-01T15:13:22;19.70;1.00
6098;DHT22;3077;50.922;6.584;2023-03-01T15:15:49;20.00;1.00
6098;DHT22;3077;50.922;6.584;2023-03-01T15:18:27;20.30;1.00
6098;DHT22;3077;50.922;6.584;2023-03-01T15:20:54;20.40;1.00
6098;DHT22;3077;50.922;6.584;2023-03-01T15:25:51;20.50;1.00
6098;DHT22;3077;50.922;6.584;2023-03-01T15:28:41;20.80;1.00
6098;DHT22;3077;50.922;6.584;2023-03-01T15:31:20;20.80;1.00
6098;DHT22;3077;50.922;6.584;2023-03-01T15:33:47;20.70;1.00
6098;DHT22;3077;50.922;6.584;2023-03-01T15:36:32;20.70;1.00
6098;DHT22;3077;50.922;6.584;2023-03-01T15:39:00;20.60;1.00
6098;DHT22;3077;50.922;6.584;2023-03-01T15:41:27;20.50;1.00
6098;DHT22;3077;50.922;6.584;2023-03-01T15:43:54;20.80;1.00
6098;DHT22;3077;50.922;6.584;2023-03-01T15:46:33;20.40;1.00
6098;DHT22;3077;50.922;6.584;2023-03-01T15:49:03;19.80;1.00
6098;DHT22;3077;50.922;6.584;2023-03-01T15:51:35;19.80;1.00
6098;DHT22;3077;50.922;6.584;2023-03-01T15:54:04;19.60;1.00
6098;DHT22;3077;50.922;6.584;2023-03-01T15:56:31;20.00;1.00
6098;DHT22;3077;50.922;6.584;2023-03-01T15:59:01;19.90;1.00
6098;DHT22;3077;50.922;6.584;2023-03-01T16:01:28;19.80;1.00
6098;DHT22;3077;50.922;6.584;2023-03-01T16:03:54;19.90;1.00
6098;DHT22;3077;50.922;6.584;2023-03-01T16:06:19;19.50;1.00
6098;DHT22;3077;50.922;6.584;2023-03-01T16:08:45;19.10;1.00
6098;DHT22;3077;50.922;6.584;2023-03-01T16:11:17;19.10;1.00
6098;DHT22;3077;50.922;6.584;2023-03-01T16:13:43;18.50;1.00
6098;DHT22;3077;50.922;6.584;2023-03-01T16:16:10;18.40;1.00
6098;DHT22;3077;50.922;6.584;2023-03-01T16:18:41;18.50;1.00
6098;DHT22;3077;50.922;6.584;2023-03-01T16:21:08;18.70;1.00
6098;DHT22;3077;50.922;6.584;2023-03-01T16:23:35;18.20;1.00
6098;DHT22;3077;50.922;6.584;2023-03-01T16:26:01;18.00;1.00
6098;DHT22;3077;50.922;6.584;2023-03-01T16:28:27;17.50;1.00
6098;DHT22;3077;50.922;6.584;2023-03-01T16:30:52;17.60;1.00
6098;DHT22;3077;50.922;6.584;2023-03-01T16:33:18;17.40;1.00
6098;DHT22;3077;50.922;6.584;2023-03-01T16:35:43;17.60;1.00
6098;DHT22;3077;50.922;6.584;2023-03-01T16:38:10;17.60;1.00
6098;DHT22;3077;50.922;6.584;2023-03-01T16:40:35;17.50;1.00
6098;DHT22;3077;50.922;6.584;2023-03-01T16:45:34;16.30;1.00
6098;DHT22;3077;50.922;6.584;2023-03-01T16:48:01;16.00;1.00
6098;DHT22;3077;50.922;6.584;2023-03-01T16:50:26;15.70;1.00
6098;DHT22;3077;50.922;6.584;2023-03-01T16:52:53;15.10;1.00
6098;DHT22;3077;50.922;6.584;2023-03-01T16:55:19;14.50;1.00
6098;DHT22;3077;50.922;6.584;2023-03-01T16:57:44;14.00;1.00
6098;DHT22;3077;50.922;6.584;2023-03-01T17:00:12;13.50;1.00
6098;DHT22;3077;50.922;6.584;2023-03-01T17:02:39;13.20;1.00
6098;DHT22;3077;50.922;6.584;2023-03-01T17:05:06;12.90;1.00
6098;DHT22;3077;50.922;6.584;2023-03-01T17:07:32;12.40;1.00
6098;DHT22;3077;50.922;6.584;2023-03-01T17:10:02;11.90;1.60
6098;DHT22;3077;50.922;6.584;2023-03-01T17:12:28;11.40;2.60
6098;DHT22;3077;50.922;6.584;2023-03-01T17:14:54;11.00;3.20
6098;DHT22;3077;50.922;6.584;2023-03-01T17:17:20;10.60;4.20
6098;DHT22;3077;50.922;6.584;2023-03-01T17:19:46;10.20;5.10
6098;DHT22;3077;50.922;6.584;2023-03-01T17:22:11;9.90;7.00
6098;DHT22;3077;50.922;6.584;2023-03-01T17:24:39;9.60;7.80
6098;DHT22;3077;50.922;6.584;2023-03-01T17:27:06;9.40;7.30
6098;DHT22;3077;50.922;6.584;2023-03-01T17:29:32;9.20;7.20
6098;DHT22;3077;50.922;6.584;2023-03-01T17:31:57;8.90;7.40
6098;DHT22;3077;50.922;6.584;2023-03-01T17:34:23;8.80;8.90
6098;DHT22;3077;50.922;6.584;2023-03-01T17:36:49;8.50;10.00
6098;DHT22;3077;50.922;6.584;2023-03-01T17:39:17;8.30;10.60
6098;DHT22;3077;50.922;6.584;2023-03-01T17:41:44;8.30;12.10
6098;DHT22;3077;50.922;6.584;2023-03-01T17:44:10;8.30;12.30
6098;DHT22;3077;50.922;6.584;2023-03-01T17:46:36;8.00;13.10
6098;DHT22;3077;50.922;6.584;2023-03-01T17:49:02;7.80;14.20
6098;DHT22;3077;50.922;6.584;2023-03-01T17:51:28;7.90;15.30
6098;DHT22;3077;50.922;6.584;2023-03-01T17:53:53;7.80;15.90
6098;DHT22;3077;50.922;6.584;2023-03-01T17:56:19;7.50;16.20
6098;DHT22;3077;50.922;6.584;2023-03-01T17:58:45;7.50;16.90
6098;DHT22;3077;50.922;6.584;2023-03-01T18:01:17;7.30;17.30
6098;DHT22;3077;50.922;6.584;2023-03-01T18:03:43;7.20;18.00
6098;DHT22;3077;50.922;6.584;2023-03-01T18:06:14;6.90;18.10
6098;DHT22;3077;50.922;6.584;2023-03-01T18:08:41;7.10;18.60
6098;DHT22;3077;50.922;6.584;2023-03-01T18:11:06;7.30;19.20
6098;DHT22;3077;50.922;6.584;2023-03-01T18:13:33;7.20;20.30
6098;DHT22;3077;50.922;6.584;2023-03-01T18:15:59;7.00;33.40
6098;DHT22;3077;50.922;6.584;2023-03-01T18:18:27;6.90;21.60
6098;DHT22;3077;50.922;6.584;2023-03-01T18:20:56;6.80;22.30
6098;DHT22;3077;50.922;6.584;2023-03-01T18:23:23;6.80;22.90
6098;DHT22;3077;50.922;6.584;2023-03-01T18:25:49;7.60;36.90
6098;DHT22;3077;50.922;6.584;2023-03-01T18:28:15;6.60;24.20